createdAt,value
2023-05-01T00:01:08.219Z,101801.16
2023-05-01T00:03:35.506Z,101790.06
2023-05-01T00:06:05.836Z,101785.59
2023-05-01T00:08:35.362Z,101784.31
2023-05-01T00:11:05.796Z,101768.59
2023-05-01T00:13:32.501Z,101777.81
2023-05-01T00:15:59.316Z,101767.31
2023-05-01T00:18:26.392Z,101769.44
2023-05-01T00:20:53.089Z,101773.78
2023-05-01T00:23:20.014Z,101745.81
2023-05-01T00:25:47.017Z,101765.13
2023-05-01T00:28:14.025Z,101735.94
2023-05-01T00:30:41.135Z,101745.50
2023-05-01T00:33:08.238Z,101752.41
2023-05-01T00:35:35.904Z,101743.28
2023-05-01T00:38:02.791Z,101727.16
2023-05-01T00:40:29.648Z,101745.00
2023-05-01T00:42:56.828Z,101671.69
2023-05-01T00:45:28.689Z,101732.22
2023-05-01T00:47:55.792Z,101739.25
2023-05-01T00:50:25.088Z,101723.25
2023-05-01T00:52:52.090Z,101600.09
2023-05-01T00:55:18.968Z,101711.19
2023-05-01T00:57:46.556Z,101722.47
2023-05-01T01:00:19.549Z,101711.19
2023-05-01T01:02:47.072Z,101709.44
2023-05-01T01:05:16.332Z,101713.41
2023-05-01T01:08:09.836Z,101696.66
2023-05-01T01:10:44.538Z,101715.00
2023-05-01T01:13:39.530Z,101708.78
2023-05-01T01:16:37.528Z,101703.19
2023-05-01T01:19:37.456Z,101707.66
2023-05-01T01:22:12.460Z,101625.56
2023-05-01T01:25:23.605Z,101698.56
2023-05-01T01:28:14.036Z,101697.72
2023-05-01T01:31:12.783Z,101694.28
2023-05-01T01:34:02.544Z,101691.78
2023-05-01T01:36:49.697Z,101662.22
2023-05-01T01:39:24.424Z,101678.38
2023-05-01T01:41:59.453Z,101677.53
2023-05-01T01:44:37.774Z,101673.91
2023-05-01T01:47:08.982Z,101634.88
2023-05-01T01:49:38.603Z,101654.59
2023-05-01T01:52:10.814Z,101663.09
2023-05-01T01:54:43.715Z,101660.66
2023-05-01T01:57:13.698Z,101624.91
2023-05-01T01:59:42.606Z,101649.88
2023-05-01T02:02:10.485Z,101608.66
2023-05-01T02:04:39.754Z,101641.06
2023-05-01T02:07:07.714Z,101646.53
2023-05-01T02:09:35.759Z,101610.53
2023-05-01T02:12:05.906Z,101631.44
2023-05-01T02:14:33.810Z,101627.38
2023-05-01T02:17:05.000Z,101624.91
2023-05-01T02:19:33.820Z,101623.78
2023-05-01T02:22:05.091Z,101622.03
2023-05-01T02:24:35.816Z,101606.63
2023-05-01T02:27:10.853Z,101619.31
2023-05-01T02:29:37.950Z,101620.91
2023-05-01T02:32:09.512Z,101447.53
2023-05-01T02:34:38.689Z,101613.84
2023-05-01T02:37:11.349Z,101611.72
2023-05-01T02:39:40.922Z,101600.88
2023-05-01T02:42:12.374Z,101573.19
2023-05-01T02:44:43.718Z,101428.81
2023-05-01T02:47:14.334Z,101573.81
2023-05-01T02:49:42.378Z,101590.81
2023-05-01T02:52:09.494Z,101574.09
2023-05-01T02:54:39.241Z,101596.84
2023-05-01T02:57:06.153Z,101587.81
2023-05-01T02:59:34.110Z,101591.66
2023-05-01T03:02:03.699Z,101562.88
2023-05-01T03:04:30.805Z,101584.75
2023-05-01T03:06:57.660Z,101576.09
2023-05-01T03:09:24.547Z,101585.03
2023-05-01T03:11:54.993Z,101572.63
2023-05-01T03:14:21.966Z,101403.38
2023-05-01T03:16:49.169Z,101566.31
2023-05-01T03:19:16.145Z,101559.13
2023-05-01T03:21:43.033Z,101560.59
2023-05-01T03:24:10.250Z,101562.16
2023-05-01T03:26:37.015Z,101537.09
2023-05-01T03:29:13.693Z,101543.88
2023-05-01T03:31:40.491Z,101556.25
2023-05-01T03:34:09.446Z,101558.13
2023-05-01T03:36:38.633Z,101546.75
2023-05-01T03:39:05.900Z,101542.16
2023-05-01T03:41:36.191Z,101549.34
2023-05-01T03:44:04.126Z,101507.44
2023-05-01T03:46:31.054Z,101514.63
2023-05-01T03:48:57.978Z,101519.09
2023-05-01T03:51:24.858Z,101538.13
2023-05-01T03:53:56.805Z,101514.91
2023-05-01T03:56:28.954Z,101536.38
2023-05-01T03:58:57.832Z,101541.97
2023-05-01T04:01:27.400Z,101532.94
2023-05-01T04:03:54.353Z,101534.19
2023-05-01T04:06:23.823Z,101530.34
2023-05-01T04:08:52.737Z,101538.38
2023-05-01T04:11:19.435Z,101534.06
2023-05-01T04:13:46.187Z,101525.41
2023-05-01T04:16:14.370Z,101535.03
2023-05-01T04:18:41.214Z,101528.59
2023-05-01T04:21:08.175Z,101526.09
2023-05-01T04:23:40.055Z,101532.03
2023-05-01T04:26:09.625Z,101539.25
2023-05-01T04:28:38.866Z,101525.16
2023-05-01T04:31:06.230Z,101392.31
2023-05-01T04:33:32.984Z,101522.41
2023-05-01T04:35:59.837Z,101521.13
2023-05-01T04:38:30.420Z,101526.56
2023-05-01T04:40:59.894Z,101490.00
2023-05-01T04:43:26.806Z,101524.72
2023-05-01T04:45:54.812Z,101485.94
2023-05-01T04:48:27.013Z,101526.56
2023-05-01T04:50:58.868Z,101500.66
2023-05-01T04:53:25.646Z,101533.50
2023-05-01T04:55:52.902Z,101532.50
2023-05-01T04:58:19.875Z,101528.03
2023-05-01T05:00:48.727Z,101523.44
2023-05-01T05:03:19.174Z,101502.72
2023-05-01T05:05:47.027Z,101458.34
2023-05-01T05:08:19.000Z,101517.38
2023-05-01T05:10:46.059Z,101515.38
2023-05-01T05:13:13.078Z,101524.31
2023-05-01T05:15:42.554Z,101520.41
2023-05-01T05:18:09.784Z,101527.47
2023-05-01T05:20:40.335Z,101524.59
2023-05-01T05:23:08.418Z,101529.44
2023-05-01T05:25:38.236Z,101500.53
2023-05-01T05:28:07.530Z,101429.97
2023-05-01T05:30:37.382Z,101480.97
2023-05-01T05:33:07.338Z,101523.88
2023-05-01T05:35:39.332Z,101498.41
2023-05-01T05:38:08.519Z,101517.16
2023-05-01T05:40:35.466Z,101519.75
2023-05-01T05:43:05.318Z,101495.69
2023-05-01T05:45:37.365Z,101518.03
2023-05-01T05:48:07.252Z,101498.19
2023-05-01T05:50:34.054Z,101517.78
2023-05-01T05:53:01.319Z,101498.41
2023-05-01T05:55:28.470Z,101473.19
2023-05-01T05:57:57.867Z,101509.19
2023-05-01T06:00:24.887Z,101471.38
2023-05-01T06:02:52.059Z,101502.75
2023-05-01T06:05:19.895Z,101502.66
2023-05-01T06:07:48.129Z,101492.66
2023-05-01T06:10:15.250Z,101495.72
2023-05-01T06:12:48.312Z,101479.25
2023-05-01T06:15:18.964Z,101489.09
2023-05-01T06:17:48.620Z,101507.16
2023-05-01T06:20:18.270Z,101475.66
2023-05-01T06:22:46.854Z,101508.16
2023-05-01T06:25:16.475Z,101515.13
2023-05-01T06:27:43.497Z,101374.28
2023-05-01T06:30:14.863Z,101517.06
2023-05-01T06:32:50.629Z,101468.13
2023-05-01T06:35:22.174Z,101492.72
2023-05-01T06:37:51.215Z,101506.06
2023-05-01T06:40:20.684Z,101508.72
2023-05-01T06:42:47.694Z,101504.81
2023-05-01T06:45:14.769Z,101465.09
2023-05-01T06:47:41.663Z,101457.25
2023-05-01T06:50:09.186Z,101483.19
2023-05-01T06:52:35.935Z,101384.16
2023-05-01T06:55:03.885Z,101472.69
2023-05-01T06:57:33.189Z,101506.19
2023-05-01T07:00:00.307Z,101435.50
2023-05-01T07:02:28.422Z,101484.75
2023-05-01T07:04:57.997Z,101357.13
2023-05-01T07:07:26.779Z,101494.53
2023-05-01T07:09:56.068Z,101470.16
2023-05-01T07:12:25.847Z,101460.50
2023-05-01T07:14:57.101Z,101493.53
2023-05-01T07:17:26.732Z,101487.72
2023-05-01T07:19:53.715Z,101474.25
2023-05-01T07:22:21.874Z,101475.41
2023-05-01T07:24:48.701Z,101484.97
2023-05-01T07:27:18.114Z,101465.59
2023-05-01T07:29:47.677Z,101480.38
2023-05-01T07:32:16.357Z,101461.06
2023-05-01T07:34:43.248Z,101465.16
2023-05-01T07:37:13.094Z,101452.66
2023-05-01T07:39:42.227Z,101449.19
2023-05-01T07:42:09.096Z,101483.19
2023-05-01T07:44:36.410Z,101448.94
2023-05-01T07:47:04.493Z,101467.13
2023-05-01T07:49:38.898Z,101485.53
2023-05-01T07:52:09.040Z,101451.06
2023-05-01T07:54:39.033Z,101478.84
2023-05-01T07:57:09.101Z,101476.31
2023-05-01T07:59:38.048Z,101478.41
2023-05-01T08:02:05.156Z,101470.88
2023-05-01T08:04:32.580Z,101460.09
2023-05-01T08:07:02.139Z,101459.97
2023-05-01T08:09:31.683Z,101474.72
2023-05-01T08:12:00.638Z,101445.22
2023-05-01T08:14:27.417Z,101472.78
2023-05-01T08:16:55.578Z,101463.38
2023-05-01T08:19:23.217Z,101471.00
2023-05-01T08:21:50.126Z,101474.19
2023-05-01T08:24:16.765Z,101458.63
2023-05-01T08:26:45.631Z,101466.03
2023-05-01T08:29:12.909Z,101460.78
2023-05-01T08:31:39.572Z,101455.31
2023-05-01T08:34:08.917Z,101458.91
2023-05-01T08:36:40.385Z,101465.78
2023-05-01T08:39:06.986Z,101459.31
2023-05-01T08:41:34.776Z,101455.81
2023-05-01T08:44:04.910Z,101444.34
2023-05-01T08:46:41.352Z,101466.03
2023-05-01T08:49:09.623Z,101449.97
2023-05-01T08:51:39.606Z,101455.72
2023-05-01T08:54:08.387Z,101438.16
2023-05-01T08:56:39.113Z,101449.09
2023-05-01T08:59:07.776Z,101462.25
2023-05-01T09:01:35.767Z,101455.81
2023-05-01T09:04:03.952Z,101454.47
2023-05-01T09:06:33.013Z,101453.63
2023-05-01T09:09:00.076Z,101399.34
2023-05-01T09:11:27.130Z,101448.22
2023-05-01T09:13:54.203Z,101455.47
2023-05-01T09:16:23.631Z,101451.56
2023-05-01T09:18:53.524Z,101444.97
2023-05-01T09:21:20.120Z,101462.38
2023-05-01T09:23:51.322Z,101456.34
2023-05-01T09:26:18.247Z,101464.69
2023-05-01T09:28:52.120Z,101469.91
2023-05-01T09:31:28.775Z,101474.97
2023-05-01T09:34:03.463Z,101475.78
2023-05-01T09:36:32.480Z,101459.97
2023-05-01T09:39:02.643Z,101466.44
2023-05-01T09:41:33.093Z,101391.19
2023-05-01T09:43:59.962Z,101468.38
2023-05-01T09:46:27.086Z,101461.28
2023-05-01T09:48:59.147Z,101401.41
2023-05-01T09:51:35.047Z,101483.88
2023-05-01T09:54:05.916Z,101491.78
2023-05-01T09:56:47.727Z,101486.38
2023-05-01T09:59:18.161Z,101478.97
2023-05-01T10:01:50.386Z,101488.94
2023-05-01T10:04:17.375Z,101489.91
2023-05-01T10:06:44.055Z,101449.22
2023-05-01T10:09:16.994Z,101468.41
2023-05-01T10:11:57.299Z,101477.47
2023-05-01T10:14:25.157Z,101432.53
2023-05-01T10:16:54.521Z,101486.75
2023-05-01T10:19:23.701Z,101484.88
2023-05-01T10:21:50.479Z,101490.91
2023-05-01T10:24:20.360Z,101482.91
2023-05-01T10:26:53.784Z,101498.91
2023-05-01T10:29:23.328Z,101492.41
2023-05-01T10:31:52.276Z,101497.44
2023-05-01T10:34:24.167Z,101487.09
2023-05-01T10:37:00.350Z,101435.84
2023-05-01T10:39:34.937Z,101503.47
2023-05-01T10:42:05.918Z,101458.84
2023-05-01T10:44:34.796Z,101497.13
2023-05-01T10:47:24.754Z,101489.00
2023-05-01T10:50:16.152Z,101502.69
2023-05-01T10:53:14.763Z,101504.91
2023-05-01T10:55:43.977Z,101503.72
2023-05-01T10:58:12.074Z,101499.16
2023-05-01T11:00:38.740Z,101498.44
2023-05-01T11:03:25.837Z,101507.25
2023-05-01T11:06:04.793Z,101506.72
2023-05-01T11:08:32.355Z,101507.38
2023-05-01T11:11:24.081Z,101498.88
2023-05-01T11:14:00.000Z,101504.72
2023-05-01T11:16:39.422Z,101508.63
2023-05-01T11:19:12.023Z,101488.09
2023-05-01T11:21:40.511Z,101500.31
2023-05-01T11:24:08.054Z,101507.59
2023-05-01T11:26:42.261Z,101500.16
2023-05-01T11:29:10.833Z,101500.16
2023-05-01T11:31:38.425Z,101507.41
2023-05-01T11:34:08.439Z,101515.56
2023-05-01T11:36:54.566Z,101499.75
2023-05-01T11:39:25.951Z,101514.94
2023-05-01T11:42:06.757Z,101519.66
2023-05-01T11:44:33.439Z,101463.38
2023-05-01T11:47:01.399Z,101526.09
2023-05-01T11:49:30.768Z,101529.56
2023-05-01T11:51:58.286Z,101509.00
2023-05-01T11:54:25.033Z,101516.66
2023-05-01T11:57:03.670Z,101521.41
2023-05-01T11:59:32.837Z,101512.84
2023-05-01T12:01:59.417Z,101526.53
2023-05-01T12:04:31.300Z,101504.28
2023-05-01T12:06:59.102Z,101522.06
2023-05-01T12:09:29.535Z,101521.06
2023-05-01T12:11:59.543Z,101507.75
2023-05-01T12:14:26.333Z,101530.94
2023-05-01T12:16:54.070Z,101525.44
2023-05-01T12:19:23.214Z,101505.97
2023-05-01T12:22:05.414Z,101508.25
2023-05-01T12:24:31.956Z,101523.81
2023-05-01T12:27:04.159Z,101522.50
2023-05-01T12:29:41.595Z,101520.38
2023-05-01T12:32:09.167Z,101525.91
2023-05-01T12:34:38.669Z,101529.59
2023-05-01T12:37:07.872Z,101523.44
2023-05-01T12:39:39.631Z,101525.13
2023-05-01T12:42:13.346Z,101530.25
2023-05-01T12:44:40.027Z,101515.91
2023-05-01T12:47:08.870Z,101528.31
2023-05-01T12:49:40.700Z,101523.09
2023-05-01T12:52:11.666Z,101528.06
2023-05-01T12:54:40.654Z,101524.47
2023-05-01T12:57:19.526Z,101520.06
2023-05-01T12:59:47.331Z,101502.00
2023-05-01T13:02:17.661Z,101534.19
2023-05-01T13:04:44.881Z,101484.56
2023-05-01T13:07:20.672Z,101509.03
2023-05-01T13:09:54.459Z,101514.09
2023-05-01T13:12:21.510Z,101530.81
2023-05-01T13:14:48.479Z,101490.22
2023-05-01T13:17:26.131Z,101529.34
2023-05-01T13:19:57.096Z,101534.56
2023-05-01T13:22:40.000Z,101523.34
2023-05-01T13:25:19.745Z,101524.59
2023-05-01T13:27:51.121Z,101519.91
2023-05-01T13:30:30.758Z,101523.63
2023-05-01T13:33:00.600Z,101524.06
2023-05-01T13:35:27.467Z,101526.34
2023-05-01T13:37:55.212Z,101525.81
2023-05-01T13:40:24.332Z,101526.84
2023-05-01T13:42:53.152Z,101534.09
2023-05-01T13:45:21.461Z,101538.59
2023-05-01T13:47:52.010Z,101520.69
2023-05-01T13:50:18.826Z,101528.28
2023-05-01T13:52:48.611Z,101519.06
2023-05-01T13:55:17.603Z,101534.28
2023-05-01T13:57:44.613Z,101537.66
2023-05-01T14:00:19.209Z,101522.75
2023-05-01T14:02:53.055Z,101479.75
2023-05-01T14:05:26.795Z,101526.47
2023-05-01T14:07:58.545Z,101534.41
2023-05-01T14:10:28.272Z,101537.81
2023-05-01T14:12:56.885Z,101532.22
2023-05-01T14:15:24.720Z,101522.22
2023-05-01T14:17:51.916Z,101521.47
2023-05-01T14:20:18.662Z,101533.94
2023-05-01T14:22:51.759Z,101542.41
2023-05-01T14:25:33.020Z,101536.88
2023-05-01T14:28:01.281Z,101543.75
2023-05-01T14:30:29.093Z,101550.88
2023-05-01T14:32:56.732Z,101549.56
2023-05-01T14:35:27.989Z,101530.69
2023-05-01T14:37:55.262Z,101497.41
2023-05-01T14:40:27.584Z,101519.25
2023-05-01T14:42:57.848Z,101540.91
2023-05-01T14:45:24.463Z,101527.06
2023-05-01T14:47:51.111Z,101526.69
2023-05-01T14:50:22.952Z,101531.75
2023-05-01T14:52:58.126Z,101536.59
2023-05-01T14:55:33.478Z,101544.88
2023-05-01T14:58:01.233Z,101533.13
2023-05-01T15:00:28.084Z,101534.88
2023-05-01T15:02:57.602Z,101538.56
2023-05-01T15:05:28.315Z,101528.91
2023-05-01T15:07:56.698Z,101529.34
2023-05-01T15:10:24.022Z,101547.22
2023-05-01T15:12:51.484Z,101531.28
2023-05-01T15:15:21.385Z,101518.22
2023-05-01T15:17:50.577Z,101523.41
2023-05-01T15:20:17.397Z,101546.94
2023-05-01T15:22:43.949Z,101543.19
2023-05-01T15:25:13.516Z,101548.75
2023-05-01T15:27:40.164Z,101537.00
2023-05-01T15:30:08.744Z,101546.88
2023-05-01T15:32:38.045Z,101555.19
2023-05-01T15:35:04.989Z,101545.91
2023-05-01T15:37:32.196Z,101544.03
2023-05-01T15:39:59.655Z,101559.88
2023-05-01T15:42:26.348Z,101561.91
2023-05-01T15:44:55.228Z,101566.78
2023-05-01T15:47:24.150Z,101559.38
2023-05-01T15:49:50.803Z,101569.78
2023-05-01T15:52:17.396Z,101571.91
2023-05-01T15:54:46.254Z,101566.81
2023-05-01T15:57:13.671Z,101562.53
2023-05-01T15:59:40.879Z,101564.75
2023-05-01T16:02:08.924Z,101562.19
2023-05-01T16:04:36.145Z,101573.03
2023-05-01T16:07:11.516Z,101565.09
2023-05-01T16:09:38.156Z,101577.81
2023-05-01T16:12:04.905Z,101569.13
2023-05-01T16:14:31.753Z,101581.41
2023-05-01T16:17:01.486Z,101579.59
2023-05-01T16:19:32.128Z,101584.00
2023-05-01T16:21:59.280Z,101549.94
2023-05-01T16:24:28.630Z,101602.16
2023-05-01T16:26:55.250Z,101598.66
2023-05-01T16:29:26.889Z,101589.81
2023-05-01T16:31:53.558Z,101612.44
2023-05-01T16:34:24.149Z,101594.97
2023-05-01T16:36:53.078Z,101612.69
2023-05-01T16:39:24.325Z,101605.16
2023-05-01T16:41:52.926Z,101602.44
2023-05-01T16:44:23.371Z,101611.22
2023-05-01T16:46:54.525Z,101615.06
2023-05-01T16:49:22.200Z,101613.72
2023-05-01T16:51:49.248Z,101614.41
2023-05-01T16:54:16.409Z,101624.19
2023-05-01T16:56:43.042Z,101625.97
2023-05-01T16:59:11.731Z,101637.25
2023-05-01T17:01:38.363Z,101637.25
2023-05-01T17:04:07.568Z,101628.38
2023-05-01T17:06:36.424Z,101614.72
2023-05-01T17:09:03.367Z,101617.16
2023-05-01T17:11:31.875Z,101631.69
2023-05-01T17:14:03.705Z,101624.78
2023-05-01T17:16:30.528Z,101634.41
2023-05-01T17:18:59.755Z,101619.25
2023-05-01T17:21:29.680Z,101633.81
2023-05-01T17:23:56.332Z,101639.00
2023-05-01T17:26:22.963Z,101633.88
2023-05-01T17:28:50.598Z,101614.59
2023-05-01T17:31:18.805Z,101616.81
2023-05-01T17:33:51.920Z,101635.78
2023-05-01T17:36:21.381Z,101567.66
2023-05-01T17:38:47.959Z,101642.03
2023-05-01T17:41:16.822Z,101638.44
2023-05-01T17:43:46.188Z,101648.97
2023-05-01T17:46:16.822Z,101651.00
2023-05-01T17:48:43.540Z,101659.09
2023-05-01T17:51:13.953Z,101616.09
2023-05-01T17:53:40.966Z,101659.16
2023-05-01T17:56:07.820Z,101670.38
2023-05-01T17:58:34.562Z,101668.84
2023-05-01T18:01:01.283Z,101656.63
2023-05-01T18:03:28.646Z,101645.94
2023-05-01T18:05:55.496Z,101662.66
2023-05-01T18:08:22.053Z,101683.66
2023-05-01T18:10:48.656Z,101651.41
2023-05-01T18:13:16.975Z,101683.44
2023-05-01T18:15:44.014Z,101695.31
2023-05-01T18:18:10.940Z,101698.75
2023-05-01T18:20:37.726Z,101697.16
2023-05-01T18:23:04.325Z,101688.53
2023-05-01T18:25:30.870Z,101713.00
2023-05-01T18:27:58.719Z,101710.38
2023-05-01T18:30:25.521Z,101715.53
2023-05-01T18:32:52.141Z,101713.06
2023-05-01T18:35:19.082Z,101710.81
2023-05-01T18:37:46.567Z,101728.84
2023-05-01T18:40:13.416Z,101726.03
2023-05-01T18:42:41.637Z,101724.78
2023-05-01T18:45:10.165Z,101720.94
2023-05-01T18:47:39.433Z,101743.41
2023-05-01T18:50:06.937Z,101741.81
2023-05-01T18:52:37.135Z,101744.72
2023-05-01T18:55:04.083Z,101750.00
2023-05-01T18:57:32.872Z,101747.50
2023-05-01T19:00:01.297Z,101750.72
2023-05-01T19:02:28.259Z,101746.72
2023-05-01T19:04:57.953Z,101760.94
2023-05-01T19:07:28.176Z,101755.53
2023-05-01T19:09:57.585Z,101758.78
2023-05-01T19:12:24.376Z,101747.59
2023-05-01T19:14:50.978Z,101755.78
2023-05-01T19:17:18.464Z,101739.97
2023-05-01T19:19:45.038Z,101778.06
2023-05-01T19:22:11.668Z,101782.31
2023-05-01T19:24:38.390Z,101777.03
2023-05-01T19:27:04.994Z,101792.34
2023-05-01T19:29:32.119Z,101779.69
2023-05-01T19:32:00.451Z,101788.91
2023-05-01T19:34:29.946Z,101794.53
2023-05-01T19:37:00.396Z,101796.19
2023-05-01T19:39:27.226Z,101792.16
2023-05-01T19:41:56.059Z,101795.53
2023-05-01T19:44:22.665Z,101796.13
2023-05-01T19:46:54.586Z,101804.81
2023-05-01T19:49:22.214Z,101796.47
2023-05-01T19:51:48.958Z,101793.63
2023-05-01T19:54:18.256Z,101817.44
2023-05-01T19:56:46.675Z,101807.94
2023-05-01T19:59:13.768Z,101809.97
2023-05-01T20:01:40.803Z,101821.25
2023-05-01T20:04:08.204Z,101816.06
2023-05-01T20:06:35.207Z,101822.25
2023-05-01T20:09:04.536Z,101828.47
2023-05-01T20:11:41.328Z,101843.50
2023-05-01T20:14:08.442Z,101816.69
2023-05-01T20:16:40.753Z,101844.38
2023-05-01T20:19:07.709Z,101840.06
2023-05-01T20:21:34.717Z,101851.91
2023-05-01T20:24:01.703Z,101850.44
2023-05-01T20:26:28.507Z,101857.41
2023-05-01T20:28:56.873Z,101853.47
2023-05-01T20:31:23.848Z,101858.78
2023-05-01T20:33:50.793Z,101863.03
2023-05-01T20:36:17.968Z,101867.91
2023-05-01T20:38:46.333Z,101746.56
2023-05-01T20:41:13.596Z,101871.47
2023-05-01T20:43:40.624Z,101859.63
2023-05-01T20:46:07.349Z,101868.28
2023-05-01T20:48:34.221Z,101881.72
2023-05-01T20:51:00.990Z,101880.53
2023-05-01T20:53:27.887Z,101877.06
2023-05-01T20:55:56.872Z,101871.16
2023-05-01T20:58:23.623Z,101881.38
2023-05-01T21:00:54.040Z,101872.97
2023-05-01T21:03:23.495Z,101883.66
2023-05-01T21:05:50.463Z,101861.69
2023-05-01T21:08:17.196Z,101888.25
2023-05-01T21:10:44.124Z,101866.00
2023-05-01T21:13:11.048Z,101884.47
2023-05-01T21:15:41.381Z,101885.63
2023-05-01T21:18:13.666Z,101882.44
2023-05-01T21:20:45.972Z,101804.59
2023-05-01T21:23:14.947Z,101897.72
2023-05-01T21:25:41.783Z,101893.00
2023-05-01T21:28:14.539Z,101875.81
2023-05-01T21:30:41.929Z,101889.06
2023-05-01T21:33:13.342Z,101914.06
2023-05-01T21:35:46.822Z,101913.06
2023-05-01T21:38:14.187Z,101897.91
2023-05-01T21:40:42.479Z,101911.03
2023-05-01T21:43:10.210Z,101908.44
2023-05-01T21:45:42.845Z,101888.41
2023-05-01T21:48:13.704Z,101908.31
2023-05-01T21:50:42.761Z,101904.13
2023-05-01T21:53:09.535Z,101904.56
2023-05-01T21:55:36.385Z,101901.84
2023-05-01T21:58:05.711Z,101913.94
2023-05-01T22:00:33.504Z,101914.19
2023-05-01T22:03:07.916Z,101922.13
2023-05-01T22:05:34.808Z,101911.72
2023-05-01T22:08:01.696Z,101917.97
2023-05-01T22:10:29.877Z,101915.63
2023-05-01T22:12:56.631Z,101922.28
2023-05-01T22:15:23.486Z,101915.34
2023-05-01T22:17:50.339Z,101916.03
2023-05-01T22:20:17.454Z,101908.06
2023-05-01T22:22:44.252Z,101939.06
2023-05-01T22:25:12.097Z,101946.56
2023-05-01T22:27:38.846Z,101933.81
2023-05-01T22:30:06.265Z,101927.78
2023-05-01T22:32:33.420Z,101947.88
2023-05-01T22:35:02.627Z,101944.09
2023-05-01T22:37:29.548Z,101928.97
2023-05-01T22:39:56.799Z,101954.88
2023-05-01T22:42:25.861Z,101959.63
2023-05-01T22:44:52.637Z,101963.34
2023-05-01T22:47:19.428Z,101959.63
2023-05-01T22:49:46.211Z,101955.28
2023-05-01T22:52:12.921Z,101957.75
2023-05-01T22:54:39.812Z,101957.03
2023-05-01T22:57:07.264Z,101962.09
2023-05-01T22:59:34.126Z,101925.78
2023-05-01T23:02:05.018Z,101946.28
2023-05-01T23:04:32.598Z,101963.63
2023-05-01T23:06:59.295Z,101983.41
2023-05-01T23:09:32.621Z,101946.22
2023-05-01T23:11:59.441Z,101970.91
2023-05-01T23:14:26.325Z,101980.75
2023-05-01T23:16:53.189Z,101981.13
2023-05-01T23:19:24.135Z,101910.06
2023-05-01T23:22:04.364Z,101980.44
2023-05-01T23:24:42.859Z,101984.59
2023-05-01T23:27:12.516Z,101997.88
2023-05-01T23:29:43.923Z,102009.16
2023-05-01T23:32:25.045Z,101990.34
2023-05-01T23:34:53.618Z,102013.78
2023-05-01T23:37:20.761Z,102011.19
2023-05-01T23:39:47.933Z,102015.34
2023-05-01T23:42:17.054Z,102019.25
2023-05-01T23:44:43.902Z,102030.78
2023-05-01T23:47:11.149Z,102034.50
2023-05-01T23:49:38.377Z,102034.66
2023-05-01T23:52:06.844Z,102040.13
2023-05-01T23:54:33.654Z,102033.91
2023-05-01T23:57:03.502Z,102041.13
2023-05-01T23:59:30.240Z,102042.38
